Ashley, Indiana
Current Conditions -  °F | °C
As of 1:15 PM on Friday 28 Nov 2014 (Local Time) from KANQ Reporting Station
Broken Clouds Broken Clouds  
Wind Chill: 16°   Ceiling: 1800
Heat Index: 23°   Visibility: 10mi
Dew Point: 18°   Wind: 6mph
Humidity: 80%   Direction: 200°SSW
Pressure: 30.21"   Gusts: NA
Location:  41.53°N, 85.07°W
Report Text: KANQ 281815Z AUTO 20005KT 10SM FEW007 SCT014 BKN018 M05/M08 A3021 RMK
Loading
Personal Weather Stations






























Interactive Weather Map New forecast layout! Learn more

10-Day Weather Forecast

Advertisements
Track Severe Weather on mobile